LNI284 VTBS-WIII
Flight info
| Callsign | LNI284 |
|---|---|
| Flight time | N/A |
| Altitude | 33000 |
| Route | BUT1J/19 BUT Y11 PASVA Y514 NUFFA DCT BIKTA B469 VMR B338 VTK/N0465F350 B338 ANITO B470 BUNIK |
| Aircraft | B739/M-SDE2E3FGHIRWXY/LB1 |
Departure
| Time | N/A |
|---|---|
| Airport | Suvarnabhumi Airport (VTBS) |
Arrival
| Time | 2026-04-30 18:35 |
|---|---|
| Airport | Soekarno-Hatta International Airport (WIII) |
| Time | Latitude | Longitude | Altitude | Speed | Heading |
|---|---|---|---|---|---|
| 2026-04-30 17:39 | 2.53313 | 103.80563 | 34911 ft | 465 kts | 154° |
| 2026-04-30 17:41 | 2.02511 | 103.92840 | 34899 ft | 463 kts | 169° |
| 2026-04-30 17:42 | 1.77242 | 103.96775 | 34889 ft | 462 kts | 169° |
| 2026-04-30 17:42 | 1.39201 | 104.02980 | 34876 ft | 458 kts | 156° |
| 2026-04-30 17:43 | 1.16562 | 104.14372 | 34939 ft | 456 kts | 153° |
| 2026-04-30 17:44 | 0.48288 | 104.48129 | 34904 ft | 456 kts | 152° |
| 2026-04-30 17:47 | -0.51625 | 105.02502 | 34890 ft | 453 kts | 143° |
| 2026-04-30 17:48 | -1.21095 | 105.49465 | 34895 ft | 452 kts | 143° |
| 2026-04-30 17:50 | -2.04005 | 106.05596 | 34900 ft | 448 kts | 143° |
| 2026-04-30 17:51 | -2.38961 | 106.17949 | 34902 ft | 458 kts | 168° |
| 2026-04-30 17:52 | -2.76707 | 106.24480 | 34923 ft | 461 kts | 168° |
| 2026-04-30 17:54 | -3.64994 | 106.39641 | 34897 ft | 462 kts | 167° |
| 2026-04-30 17:56 | -3.90132 | 106.44352 | 34894 ft | 458 kts | 167° |
| 2026-04-30 17:58 | -4.08889 | 106.47852 | 34894 ft | 456 kts | 167° |
| 2026-04-30 18:00 | -4.33777 | 106.52499 | 34893 ft | 455 kts | 167° |
| 2026-04-30 18:01 | -4.49342 | 106.55407 | 34899 ft | 455 kts | 167° |
| 2026-04-30 18:02 | -4.68089 | 106.58912 | 34894 ft | 458 kts | 167° |
| 2026-04-30 18:04 | -4.86420 | 106.62386 | 34867 ft | 409 kts | 159° |
| 2026-04-30 18:06 | -5.06619 | 106.71661 | 34901 ft | 409 kts | 153° |
| 2026-04-30 18:08 | -5.24346 | 106.79754 | 34905 ft | 406 kts | 153° |
| 2026-04-30 18:13 | -5.30236 | 106.82420 | 33387 ft | 428 kts | 153° |
| 2026-04-30 18:13 | -5.37629 | 106.85769 | 30138 ft | 447 kts | 154° |
| 2026-04-30 18:14 | -5.44373 | 106.88753 | 26882 ft | 459 kts | 161° |
| 2026-04-30 18:15 | -5.53791 | 106.87856 | 23567 ft | 459 kts | 200° |
| 2026-04-30 18:15 | -5.62478 | 106.84364 | 20657 ft | 438 kts | 200° |
| 2026-04-30 18:16 | -5.68052 | 106.82177 | 18933 ft | 423 kts | 200° |
| 2026-04-30 18:16 | -5.73468 | 106.80089 | 17175 ft | 411 kts | 200° |
| 2026-04-30 18:17 | -5.76118 | 106.79069 | 16301 ft | 405 kts | 200° |
| 2026-04-30 18:17 | -5.78721 | 106.78066 | 15472 ft | 398 kts | 200° |
| 2026-04-30 18:17 | -5.83808 | 106.76093 | 13870 ft | 386 kts | 203° |
| 2026-04-30 18:18 | -5.86040 | 106.74638 | 12989 ft | 383 kts | 223° |
| 2026-04-30 18:18 | -5.87653 | 106.72569 | 12463 ft | 370 kts | 240° |
| 2026-04-30 18:18 | -5.88688 | 106.70269 | 12107 ft | 353 kts | 248° |
| 2026-04-30 18:18 | -5.89541 | 106.68040 | 11714 ft | 341 kts | 249° |
| 2026-04-30 18:19 | -5.90365 | 106.65852 | 11334 ft | 329 kts | 248° |
| 2026-04-30 18:19 | -5.91169 | 106.63770 | 10975 ft | 319 kts | 248° |
| 2026-04-30 18:19 | -5.91981 | 106.61717 | 10630 ft | 315 kts | 248° |
| 2026-04-30 18:19 | -5.92791 | 106.59687 | 10253 ft | 308 kts | 248° |
| 2026-04-30 18:20 | -5.93579 | 106.57721 | 9967 ft | 298 kts | 247° |
| 2026-04-30 18:20 | -5.94340 | 106.55849 | 9754 ft | 286 kts | 247° |
| 2026-04-30 18:20 | -5.95087 | 106.54019 | 9526 ft | 280 kts | 247° |
| 2026-04-30 18:20 | -5.95826 | 106.52213 | 9318 ft | 280 kts | 247° |
| 2026-04-30 18:21 | -5.96567 | 106.50399 | 9116 ft | 281 kts | 247° |
| 2026-04-30 18:21 | -5.97310 | 106.48578 | 8899 ft | 283 kts | 247° |
| 2026-04-30 18:21 | -5.97961 | 106.46982 | 8724 ft | 284 kts | 247° |
| 2026-04-30 18:21 | -5.98535 | 106.45575 | 8563 ft | 284 kts | 247° |
| 2026-04-30 18:22 | -5.99283 | 106.43738 | 8353 ft | 284 kts | 247° |
| 2026-04-30 18:22 | -6.00778 | 106.40067 | 7936 ft | 283 kts | 248° |
| 2026-04-30 18:22 | -6.01521 | 106.38244 | 7723 ft | 279 kts | 248° |
| 2026-04-30 18:23 | -6.02240 | 106.36477 | 7505 ft | 268 kts | 248° |
| 2026-04-30 18:23 | -6.02931 | 106.34781 | 7310 ft | 256 kts | 248° |
| 2026-04-30 18:23 | -6.03657 | 106.33199 | 7115 ft | 245 kts | 233° |
| 2026-04-30 18:23 | -6.04919 | 106.32123 | 6952 ft | 236 kts | 202° |
| 2026-04-30 18:24 | -6.08046 | 106.31923 | 6581 ft | 223 kts | 170° |
| 2026-04-30 18:24 | -6.09555 | 106.32202 | 6392 ft | 218 kts | 169° |
| 2026-04-30 18:24 | -6.11030 | 106.32484 | 6191 ft | 214 kts | 169° |
| 2026-04-30 18:25 | -6.12488 | 106.32756 | 6003 ft | 212 kts | 169° |
| 2026-04-30 18:25 | -6.15384 | 106.33279 | 5647 ft | 211 kts | 169° |
| 2026-04-30 18:25 | -6.16826 | 106.33536 | 5464 ft | 211 kts | 169° |
| 2026-04-30 18:26 | -6.19710 | 106.34058 | 5101 ft | 211 kts | 163° |
| 2026-04-30 18:26 | -6.20905 | 106.34831 | 4924 ft | 204 kts | 125° |
| 2026-04-30 18:26 | -6.21662 | 106.36032 | 4783 ft | 206 kts | 121° |
| 2026-04-30 18:27 | -6.23199 | 106.38507 | 4448 ft | 207 kts | 120° |
| 2026-04-30 18:27 | -6.23555 | 106.39853 | 4231 ft | 200 kts | 80° |
| 2026-04-30 18:28 | -6.22830 | 106.42489 | 3945 ft | 196 kts | 72° |
| 2026-04-30 18:28 | -6.22379 | 106.43792 | 3784 ft | 198 kts | 69° |
| 2026-04-30 18:28 | -6.21381 | 106.46375 | 3507 ft | 194 kts | 68° |
| 2026-04-30 18:29 | -6.20893 | 106.47609 | 3390 ft | 195 kts | 68° |
| 2026-04-30 18:29 | -6.19709 | 106.50596 | 2824 ft | 191 kts | 68° |
| 2026-04-30 18:30 | -6.19755 | 106.50478 | 2844 ft | 188 kts | 68° |
| 2026-04-30 18:31 | -6.19278 | 106.51682 | 2606 ft | 180 kts | 68° |
| 2026-04-30 18:31 | -6.18439 | 106.53800 | 2185 ft | 150 kts | 69° |
| 2026-04-30 18:32 | -6.17803 | 106.55406 | 1868 ft | 148 kts | 69° |
| 2026-04-30 18:32 | -6.17423 | 106.56369 | 1681 ft | 148 kts | 69° |
| 2026-04-30 18:32 | -6.16662 | 106.58289 | 1303 ft | 147 kts | 69° |
| 2026-04-30 18:33 | -6.16283 | 106.59244 | 1102 ft | 147 kts | 69° |
| 2026-04-30 18:33 | -6.15535 | 106.61133 | 734 ft | 146 kts | 70° |
| 2026-04-30 18:33 | -6.15161 | 106.62078 | 530 ft | 144 kts | 69° |
| 2026-04-30 18:34 | -6.14795 | 106.63004 | 356 ft | 142 kts | 69° |
| 2026-04-30 18:34 | -6.14066 | 106.64855 | 39 ft | 140 kts | 68° |
| 2026-04-30 18:34 | -6.13770 | 106.65587 | 37 ft | 81 kts | 68° |
| 2026-04-30 18:35 | -6.13640 | 106.65910 | 35 ft | 24 kts | 68° |
| 2026-04-30 18:35 | -6.13580 | 106.66061 | 36 ft | 23 kts | 65° |
| 2026-04-30 18:35 | -6.13495 | 106.66191 | 38 ft | 22 kts | 51° |
| 2026-04-30 18:36 | -6.20011 | 106.49834 | 3000 ft | 190 kts | 68° |
| 2026-04-30 18:36 | -6.15282 | 106.61772 | 599 ft | 145 kts | 70° |
| 2026-04-30 18:36 | -6.13880 | 106.65316 | 38 ft | 81 kts | 68° |
| 2026-04-30 18:37 | -6.13827 | 106.65442 | 36 ft | 0 kts | 71° |